createdAt,value
2023-05-02T07:29:17.580Z,1.20
2023-05-02T07:31:54.831Z,1.20
2023-05-02T07:34:31.562Z,1.70
2023-05-02T07:37:08.765Z,1.30
2023-05-02T07:39:45.793Z,1.70
2023-05-02T07:42:22.360Z,3.20
2023-05-02T07:44:58.819Z,4.90
2023-05-02T07:47:35.687Z,4.70
2023-05-02T07:50:16.007Z,3.50
2023-05-02T07:52:53.787Z,3.40
2023-05-02T07:55:33.703Z,4.10
2023-05-02T07:58:11.118Z,3.20
2023-05-02T08:00:47.934Z,3.80
2023-05-02T08:03:25.636Z,3.40
2023-05-02T08:06:04.525Z,2.50
2023-05-02T08:08:41.088Z,3.50
2023-05-02T08:11:17.556Z,3.60
2023-05-02T08:13:53.981Z,3.20
2023-05-02T08:16:30.570Z,5.60
2023-05-02T08:19:07.658Z,4.50
2023-05-02T08:21:45.749Z,3.90
2023-05-02T08:24:24.809Z,3.70
2023-05-02T08:27:03.073Z,4.40
2023-05-02T08:29:41.788Z,3.70
2023-05-02T08:32:19.178Z,3.70
2023-05-02T08:34:57.990Z,3.80
2023-05-02T08:37:34.796Z,3.50
2023-05-02T08:40:33.579Z,4.20
2023-05-02T08:43:15.777Z,3.40
2023-05-02T08:45:57.225Z,2.90
2023-05-02T08:48:39.730Z,4.30
2023-05-02T08:53:57.799Z,4.40
2023-05-02T08:56:35.962Z,7.10
2023-05-02T08:59:16.510Z,4.10
2023-05-02T09:02:01.718Z,4.40
2023-05-02T09:04:43.508Z,3.10
2023-05-02T09:07:21.004Z,3.30
2023-05-02T09:09:58.482Z,2.90
2023-05-02T09:12:35.547Z,2.90
2023-05-02T09:15:20.978Z,5.40
2023-05-02T09:17:58.251Z,6.20
2023-05-02T09:20:44.688Z,6.60
2023-05-02T09:23:21.564Z,4.30
2023-05-02T09:25:58.273Z,4.60
2023-05-02T09:28:49.308Z,3.60
2023-05-02T09:31:53.952Z,3.30
2023-05-02T09:34:27.788Z,3.10
2023-05-02T09:37:05.865Z,3.20
2023-05-02T09:39:42.622Z,2.00
2023-05-02T09:42:36.450Z,2.20
2023-05-02T09:45:24.718Z,1.50
2023-05-02T09:48:06.658Z,1.70
2023-05-02T09:50:44.892Z,2.30
2023-05-02T09:53:21.726Z,1.70
2023-05-02T09:56:08.130Z,1.30
2023-05-02T09:58:45.520Z,1.70
2023-05-02T10:01:27.821Z,1.90
2023-05-02T10:04:06.751Z,2.20
2023-05-02T10:06:43.911Z,1.80
2023-05-02T10:09:24.890Z,2.30
2023-05-02T10:12:05.280Z,1.60
2023-05-02T10:14:47.865Z,2.10
2023-05-02T10:17:33.728Z,1.90
2023-05-02T10:20:17.323Z,1.90
2023-05-02T10:22:55.821Z,2.10
2023-05-02T10:25:33.595Z,1.70
2023-05-02T10:28:11.978Z,1.80
2023-05-02T10:30:50.203Z,2.30
2023-05-02T10:33:28.003Z,1.70
2023-05-02T10:36:04.910Z,1.80
2023-05-02T10:38:42.370Z,1.60
2023-05-02T10:41:25.639Z,2.40
2023-05-02T10:44:03.303Z,1.80
2023-05-02T10:46:42.349Z,3.10
2023-05-02T10:49:19.336Z,2.00
2023-05-02T10:51:56.777Z,2.00
2023-05-02T10:54:33.490Z,4.80
2023-05-02T10:57:14.326Z,1.60
2023-05-02T10:59:51.358Z,1.80
2023-05-02T11:02:57.017Z,1.60
2023-05-02T11:05:37.326Z,2.10
2023-05-02T11:08:39.825Z,2.10
2023-05-02T11:11:47.980Z,1.90
2023-05-02T11:15:02.610Z,1.60
2023-05-02T11:18:09.398Z,2.60
2023-05-02T11:20:48.481Z,1.90
2023-05-02T11:23:37.025Z,2.50
2023-05-02T11:26:27.747Z,2.90
2023-05-02T11:29:04.586Z,2.40
2023-05-02T11:32:10.153Z,2.40
2023-05-02T11:34:53.072Z,2.50
2023-05-02T11:37:29.922Z,2.70
2023-05-02T11:40:23.210Z,2.30
2023-05-02T11:43:00.989Z,2.40
2023-05-02T11:45:42.654Z,5.80
2023-05-02T11:48:22.714Z,2.40
2023-05-02T11:51:05.677Z,3.00
2023-05-02T11:53:47.223Z,3.00
2023-05-02T11:56:28.827Z,2.00
2023-05-02T11:59:08.678Z,2.40
2023-05-02T12:01:53.960Z,2.20
2023-05-02T12:04:31.665Z,3.50
2023-05-02T12:07:11.584Z,1.70
2023-05-02T12:10:00.317Z,2.60
2023-05-02T12:12:37.362Z,1.70
2023-05-02T12:15:17.183Z,3.20
2023-05-02T12:17:55.459Z,2.20
2023-05-02T12:20:32.568Z,1.40
2023-05-02T12:23:10.523Z,3.30
2023-05-02T12:25:48.998Z,1.70
2023-05-02T12:28:27.570Z,1.60
2023-05-02T12:31:13.758Z,2.70
2023-05-02T12:33:58.001Z,1.40
2023-05-02T12:36:35.693Z,1.90
2023-05-02T12:39:12.844Z,1.40
2023-05-02T12:41:50.940Z,1.50
2023-05-02T12:44:44.461Z,1.50
2023-05-02T12:47:23.575Z,1.70
2023-05-02T12:50:02.209Z,3.30
2023-05-02T12:53:00.492Z,1.90
2023-05-02T12:55:37.908Z,1.80
2023-05-02T12:58:15.894Z,1.40
2023-05-02T13:00:52.475Z,1.70
2023-05-02T13:03:29.926Z,1.80
2023-05-02T13:06:07.427Z,1.60
2023-05-02T13:08:43.438Z,2.00
2023-05-02T13:11:20.764Z,1.60
2023-05-02T13:13:58.343Z,1.70
2023-05-02T13:16:37.763Z,1.80
2023-05-02T13:19:14.509Z,1.60
2023-05-02T13:21:51.071Z,1.60
2023-05-02T13:24:27.573Z,1.70
2023-05-02T13:27:05.096Z,2.00
2023-05-02T13:29:41.892Z,2.40
2023-05-02T13:32:18.708Z,1.60
2023-05-02T13:34:55.742Z,1.80
2023-05-02T13:37:33.767Z,1.70
2023-05-02T13:40:15.257Z,1.60
2023-05-02T13:42:52.227Z,1.80
2023-05-02T13:45:30.901Z,2.10
2023-05-02T13:48:08.271Z,1.50
2023-05-02T13:50:45.287Z,1.70
2023-05-02T13:53:22.276Z,2.10
2023-05-02T13:55:59.207Z,2.00
2023-05-02T13:58:37.742Z,1.60
2023-05-02T14:01:14.820Z,1.60
2023-05-02T14:03:52.308Z,1.90
2023-05-02T14:06:29.314Z,1.70
2023-05-02T14:09:05.575Z,1.80
2023-05-02T14:11:42.663Z,3.40
2023-05-02T14:14:19.922Z,1.70
2023-05-02T14:16:56.782Z,1.60
2023-05-02T14:19:33.384Z,2.60
2023-05-02T14:22:10.497Z,1.70
2023-05-02T14:24:49.000Z,1.60
2023-05-02T14:27:25.893Z,2.00
2023-05-02T14:30:04.438Z,1.30
2023-05-02T14:32:42.969Z,1.40
2023-05-02T14:35:19.919Z,1.90
2023-05-02T14:37:57.573Z,3.00
2023-05-02T14:40:35.227Z,2.20
2023-05-02T14:43:14.353Z,2.30
2023-05-02T14:45:51.652Z,2.30
2023-05-02T14:48:28.368Z,2.30
2023-05-02T14:51:09.884Z,2.40
2023-05-02T14:53:47.396Z,2.40
2023-05-02T14:56:23.882Z,2.50
2023-05-02T14:59:00.825Z,2.10
2023-05-02T15:01:39.179Z,2.40
2023-05-02T15:04:18.962Z,2.70
2023-05-02T15:06:57.036Z,3.60
2023-05-02T15:09:34.589Z,2.10
2023-05-02T15:12:11.530Z,2.90
2023-05-02T15:14:48.377Z,1.90
2023-05-02T15:17:25.310Z,2.20
2023-05-02T15:20:02.049Z,2.60
2023-05-02T15:22:41.850Z,2.30
2023-05-02T15:25:21.692Z,3.00
2023-05-02T15:27:59.183Z,2.20
2023-05-02T15:30:36.127Z,2.40
2023-05-02T15:33:14.905Z,2.20
2023-05-02T15:36:00.851Z,2.40
2023-05-02T15:38:39.854Z,2.70
2023-05-02T15:41:17.969Z,2.20
2023-05-02T15:43:54.013Z,2.60
2023-05-02T15:46:31.114Z,2.60
2023-05-02T15:49:08.477Z,2.20
2023-05-02T15:51:45.327Z,2.10
2023-05-02T15:54:22.362Z,4.10
2023-05-02T15:56:59.862Z,2.90
2023-05-02T15:59:36.568Z,2.70
2023-05-02T16:02:12.900Z,2.70
2023-05-02T16:04:51.146Z,2.60
2023-05-02T16:07:27.796Z,3.60
2023-05-02T16:10:04.665Z,3.90
2023-05-02T16:12:42.182Z,2.60
2023-05-02T16:15:20.301Z,3.40
2023-05-02T16:17:57.678Z,2.20
2023-05-02T16:20:37.263Z,2.40
2023-05-02T16:23:14.928Z,3.20
2023-05-02T16:25:52.097Z,2.50
2023-05-02T16:28:30.893Z,3.00
2023-05-02T16:31:15.204Z,2.00
2023-05-02T16:33:52.136Z,2.10
2023-05-02T16:36:29.442Z,2.20
2023-05-02T16:39:06.742Z,2.00
2023-05-02T16:41:45.140Z,4.20
2023-05-02T16:44:21.903Z,3.50
2023-05-02T16:46:59.097Z,2.20
2023-05-02T16:49:37.995Z,2.20
2023-05-02T16:52:16.546Z,2.20
2023-05-02T16:54:53.599Z,2.00
2023-05-02T16:57:30.305Z,1.90
2023-05-02T17:00:10.897Z,2.50
2023-05-02T17:02:48.005Z,2.70
2023-05-02T17:05:26.462Z,2.10
2023-05-02T17:08:03.282Z,2.10
2023-05-02T17:10:40.096Z,2.60
2023-05-02T17:13:16.706Z,2.40
2023-05-02T17:15:53.860Z,1.70
2023-05-02T17:18:30.593Z,2.20
2023-05-02T17:21:08.475Z,1.90
2023-05-02T17:23:46.546Z,2.10
2023-05-02T17:26:24.078Z,1.80
2023-05-02T17:29:03.237Z,2.40
2023-05-02T17:31:40.534Z,1.70
2023-05-02T17:34:17.797Z,1.80
2023-05-02T17:36:55.228Z,1.80
2023-05-02T17:39:32.898Z,13.30
2023-05-02T17:42:09.614Z,4.60
2023-05-02T17:44:48.537Z,2.10
2023-05-02T17:47:26.820Z,2.10
2023-05-02T17:50:05.209Z,3.40
2023-05-02T17:52:41.731Z,3.20
2023-05-02T17:55:19.931Z,5.40
2023-05-02T17:57:58.900Z,8.10
2023-05-02T18:00:36.866Z,3.90
2023-05-02T18:03:13.801Z,3.60
2023-05-02T18:05:51.105Z,18.00
2023-05-02T18:08:28.051Z,11.70
2023-05-02T18:11:05.857Z,14.00
2023-05-02T18:13:42.615Z,6.30
2023-05-02T18:16:21.378Z,5.20
2023-05-02T18:18:58.762Z,2.50
2023-05-02T18:21:37.932Z,2.80
2023-05-02T18:24:16.132Z,9.10
2023-05-02T18:26:55.539Z,8.50
2023-05-02T18:29:31.982Z,3.70
2023-05-02T18:32:09.708Z,2.90
2023-05-02T18:34:47.437Z,6.40
2023-05-02T18:37:31.704Z,3.70
2023-05-02T18:40:14.190Z,2.80
2023-05-02T18:42:53.118Z,2.40
2023-05-02T18:45:30.111Z,2.20
2023-05-02T18:48:06.112Z,2.70
2023-05-02T18:50:42.983Z,2.50
2023-05-02T18:53:21.402Z,2.80
2023-05-02T18:56:01.044Z,1.70
2023-05-02T18:58:37.662Z,3.00
2023-05-02T19:01:22.271Z,2.80
2023-05-02T19:04:00.725Z,2.30
2023-05-02T19:06:37.649Z,2.20
2023-05-02T19:09:14.557Z,2.40
2023-05-02T19:11:51.737Z,1.90
2023-05-02T19:14:29.016Z,1.90
2023-05-02T19:17:06.843Z,2.30
2023-05-02T19:19:43.739Z,2.30
2023-05-02T19:22:22.436Z,2.00
2023-05-02T19:24:59.001Z,2.60
2023-05-02T19:27:36.867Z,3.10
2023-05-02T19:30:18.270Z,2.50
2023-05-02T19:32:55.835Z,3.30
2023-05-02T19:35:35.390Z,2.30
2023-05-02T19:38:11.905Z,2.80
2023-05-02T19:40:48.451Z,2.30
2023-05-02T19:43:25.574Z,4.60
2023-05-02T19:46:03.568Z,2.40
2023-05-02T19:48:41.559Z,2.30
2023-05-02T19:51:17.245Z,3.30
2023-05-02T19:53:55.167Z,2.30
2023-05-02T19:56:32.295Z,2.60
2023-05-02T19:59:09.479Z,2.70
2023-05-02T20:01:46.942Z,2.40
2023-05-02T20:04:25.407Z,2.60
2023-05-02T20:07:01.888Z,1.80
2023-05-02T20:09:38.903Z,2.50
2023-05-02T20:12:15.313Z,1.90
2023-05-02T20:14:52.438Z,1.50
2023-05-02T20:17:29.625Z,1.90
2023-05-02T20:20:08.583Z,1.70
2023-05-02T20:22:44.685Z,2.40
2023-05-02T20:25:22.668Z,2.10
2023-05-02T20:27:59.662Z,1.90
2023-05-02T20:30:36.835Z,1.70
2023-05-02T20:33:16.600Z,1.90
2023-05-02T20:36:01.292Z,2.90
2023-05-02T20:38:42.737Z,2.20
2023-05-02T20:41:20.902Z,2.60
2023-05-02T20:43:57.368Z,2.80
2023-05-02T20:46:33.682Z,3.30
2023-05-02T20:49:10.871Z,5.00
2023-05-02T20:51:47.161Z,3.60
2023-05-02T20:54:24.745Z,1.90
2023-05-02T20:57:00.928Z,2.50
2023-05-02T20:59:37.789Z,3.00
2023-05-02T21:02:15.632Z,2.10
2023-05-02T21:04:52.237Z,2.60
2023-05-02T21:07:30.342Z,2.10
2023-05-02T21:10:11.556Z,1.90
2023-05-02T21:12:48.367Z,1.90
2023-05-02T21:15:25.746Z,1.80
2023-05-02T21:18:10.683Z,1.80
2023-05-02T21:20:49.331Z,2.20
2023-05-02T21:23:26.595Z,1.70
2023-05-02T21:26:04.109Z,1.60
2023-05-02T21:28:40.814Z,3.10
2023-05-02T21:31:17.865Z,3.20
2023-05-02T21:33:54.854Z,2.00
2023-05-02T21:36:32.268Z,1.60
2023-05-02T21:39:09.263Z,1.60
2023-05-02T21:41:45.857Z,1.50
2023-05-02T21:44:22.763Z,1.40
2023-05-02T21:46:59.253Z,1.50
2023-05-02T21:49:36.783Z,1.60
2023-05-02T21:52:14.754Z,1.20
2023-05-02T21:54:53.307Z,1.40
2023-05-02T21:57:30.804Z,1.30
2023-05-02T22:00:15.037Z,1.30
2023-05-02T22:02:52.074Z,1.20
2023-05-02T22:05:28.986Z,1.50
2023-05-02T22:08:07.938Z,1.20
2023-05-02T22:10:46.871Z,1.40
2023-05-02T22:13:24.504Z,1.40
2023-05-02T22:16:02.480Z,1.20
2023-05-02T22:18:40.331Z,1.20
2023-05-02T22:21:19.022Z,1.70
2023-05-02T22:23:55.839Z,2.10
2023-05-02T22:26:33.696Z,1.20
2023-05-02T22:29:10.283Z,1.50
2023-05-02T22:31:47.642Z,1.40
2023-05-02T22:34:25.481Z,1.30
2023-05-02T22:37:02.976Z,1.60
2023-05-02T22:39:39.470Z,1.50
2023-05-02T22:42:17.180Z,1.30
2023-05-02T22:44:56.404Z,1.40
2023-05-02T22:47:33.165Z,8.50
2023-05-02T22:50:14.700Z,4.80
2023-05-02T22:52:51.489Z,3.70
2023-05-02T22:55:29.621Z,3.70
2023-05-02T22:58:06.666Z,4.00
2023-05-02T23:00:43.423Z,2.60
2023-05-02T23:03:20.726Z,2.30
2023-05-02T23:05:58.302Z,3.40
2023-05-02T23:08:34.823Z,2.60
2023-05-02T23:11:12.171Z,3.60
2023-05-02T23:13:49.454Z,2.80
2023-05-02T23:16:27.390Z,2.70
2023-05-02T23:19:03.872Z,2.70
2023-05-02T23:21:41.173Z,2.30
2023-05-02T23:24:18.704Z,3.60
2023-05-02T23:26:56.509Z,3.40
2023-05-02T23:29:34.652Z,3.40
2023-05-02T23:32:12.260Z,5.00
2023-05-02T23:34:49.064Z,17.20
2023-05-02T23:37:26.331Z,10.80
2023-05-02T23:40:03.578Z,9.50
2023-05-02T23:42:40.556Z,13.80
2023-05-02T23:45:19.891Z,14.80
2023-05-02T23:47:56.770Z,9.70
2023-05-02T23:50:34.033Z,10.30
2023-05-02T23:53:11.557Z,8.70
2023-05-02T23:55:47.820Z,4.40
2023-05-02T23:58:24.814Z,4.90
